Terminal Aerodrome Forecast
Issued by NWS

Home | Current Version | Previous Version | Text Only | Print | Product List | Glossary On
Versions: 1 2 3 4 5 6 7 8 9 10 11 12 13 14 15 16 17 18 19 20 21
000
FTUS42 KFFC 211731
TAFFTY
TAF
KFTY 211731Z 2118/2218 14008KT P6SM FEW025 BKN050
     FM212000 13010KT P6SM VCSH SCT025 BKN035
     FM212200 12009KT 5SM -SHRA BKN025
     FM220000 10006KT 4SM -RA BR BKN015
     FM220300 10005KT 3SM -RA BR OVC008
     FM220600 10004KT 2SM -RA BR OVC003
     FM221500 09008KT 5SM -RA BR OVC007=

USA.gov is the U.S. government's official web portal to all federal, state and local government web resources and services.